AWW913Z EGFF-LGKR
Flight info
| Callsign | AWW913Z |
|---|---|
| Flight time | 3h 20m |
| Altitude | 39000 |
| Route | BCN P4 HAWFA L607 ALHAD DCT MID UL612 OGULO DCT OKASI DCT OKEKO DCT MOU DCT MADIV DCT MOKIP DCT TUFTA DCT KOGAS DCT MEDAM DCT NITAM DCT MOGBO DCT TESTO DCT GEN DCT DIVKU DCT OFZUD DCT KAPPO DCT TIGRA |
| Aircraft | A319/M-SDE3FGHIRWY/LB1 |
Departure
| Time | 2026-04-27 13:40 |
|---|---|
| Airport | Cardiff International Airport (EGFF) |
Arrival
| Time | 2026-04-27 17:01 |
|---|---|
| Airport | Corfu Ioannis Kapodistrias International Airport (LGKR) |
| Time | Latitude | Longitude | Altitude | Speed | Heading |
|---|---|---|---|---|---|
| 2026-04-27 13:23 | 51.39911 | -3.34158 | 222 ft | 0 kts | 116° |
| 2026-04-27 13:32 | 51.39915 | -3.34171 | 221 ft | 3 kts | 120° |
| 2026-04-27 13:32 | 51.39926 | -3.34196 | 250 ft | 3 kts | 139° |
| 2026-04-27 13:33 | 51.39935 | -3.34207 | 222 ft | 0 kts | 155° |
| 2026-04-27 13:36 | 51.39932 | -3.34210 | 220 ft | 1 kts | 188° |
| 2026-04-27 13:36 | 51.39918 | -3.34227 | 224 ft | 2 kts | 213° |
| 2026-04-27 13:36 | 51.39915 | -3.34230 | 224 ft | 0 kts | 213° |
| 2026-04-27 13:37 | 51.39892 | -3.34254 | 224 ft | 7 kts | 213° |
| 2026-04-27 13:37 | 51.39829 | -3.34268 | 221 ft | 14 kts | 137° |
| 2026-04-27 13:37 | 51.39773 | -3.34096 | 221 ft | 20 kts | 116° |
| 2026-04-27 13:38 | 51.39704 | -3.33880 | 223 ft | 23 kts | 117° |
| 2026-04-27 13:38 | 51.39629 | -3.33651 | 222 ft | 24 kts | 118° |
| 2026-04-27 13:38 | 51.39558 | -3.33417 | 223 ft | 23 kts | 116° |
| 2026-04-27 13:38 | 51.39488 | -3.33191 | 222 ft | 22 kts | 116° |
| 2026-04-27 13:39 | 51.39394 | -3.32996 | 220 ft | 22 kts | 138° |
| 2026-04-27 13:39 | 51.39278 | -3.32820 | 216 ft | 24 kts | 141° |
| 2026-04-27 13:39 | 51.39202 | -3.32879 | 218 ft | 8 kts | 301° |
| 2026-04-27 13:39 | 51.39232 | -3.32973 | 227 ft | 21 kts | 296° |
| 2026-04-27 13:40 | 51.39412 | -3.33547 | 224 ft | 92 kts | 296° |
| 2026-04-27 13:40 | 51.39790 | -3.34744 | 224 ft | 147 kts | 296° |
| 2026-04-27 13:40 | 51.40250 | -3.36256 | 734 ft | 148 kts | 293° |
| 2026-04-27 13:40 | 51.40712 | -3.37802 | 1118 ft | 167 kts | 295° |
| 2026-04-27 13:41 | 51.41263 | -3.39630 | 1440 ft | 189 kts | 297° |
| 2026-04-27 13:41 | 51.41878 | -3.41653 | 1743 ft | 215 kts | 297° |
| 2026-04-27 13:41 | 51.42570 | -3.43927 | 2204 ft | 239 kts | 297° |
| 2026-04-27 13:41 | 51.43376 | -3.46306 | 2874 ft | 251 kts | 308° |
| 2026-04-27 13:42 | 51.44689 | -3.48163 | 3756 ft | 255 kts | 332° |
| 2026-04-27 13:42 | 51.46374 | -3.49036 | 4649 ft | 257 kts | 355° |
| 2026-04-27 13:42 | 51.48153 | -3.48764 | 5543 ft | 260 kts | 18° |
| 2026-04-27 13:42 | 51.49779 | -3.47444 | 6423 ft | 265 kts | 30° |
| 2026-04-27 13:43 | 51.51366 | -3.45897 | 7249 ft | 269 kts | 29° |
| 2026-04-27 13:43 | 51.52994 | -3.44358 | 8084 ft | 273 kts | 28° |
| 2026-04-27 13:43 | 51.54655 | -3.42825 | 8918 ft | 277 kts | 27° |
| 2026-04-27 13:43 | 51.56343 | -3.41283 | 9747 ft | 281 kts | 27° |
| 2026-04-27 13:44 | 51.58058 | -3.39718 | 10532 ft | 287 kts | 27° |
| 2026-04-27 13:44 | 51.59863 | -3.38072 | 10825 ft | 310 kts | 27° |
| 2026-04-27 13:44 | 51.61794 | -3.36305 | 11262 ft | 325 kts | 27° |
| 2026-04-27 13:44 | 51.63775 | -3.34480 | 11934 ft | 331 kts | 27° |
| 2026-04-27 13:45 | 51.65784 | -3.32618 | 12668 ft | 335 kts | 28° |
| 2026-04-27 13:45 | 51.67763 | -3.30577 | 13356 ft | 342 kts | 39° |
| 2026-04-27 13:45 | 51.69266 | -3.27576 | 14052 ft | 351 kts | 60° |
| 2026-04-27 13:45 | 51.69979 | -3.23789 | 14679 ft | 358 kts | 83° |
| 2026-04-27 13:46 | 51.69732 | -3.19781 | 15302 ft | 365 kts | 106° |
| 2026-04-27 13:46 | 51.68589 | -3.16106 | 15944 ft | 370 kts | 121° |
| 2026-04-27 13:46 | 51.67211 | -3.12582 | 16584 ft | 373 kts | 121° |
| 2026-04-27 13:46 | 51.65814 | -3.09047 | 17222 ft | 376 kts | 121° |
| 2026-04-27 13:47 | 51.64402 | -3.05484 | 17843 ft | 379 kts | 120° |
| 2026-04-27 13:47 | 51.62981 | -3.01890 | 18470 ft | 382 kts | 120° |
| 2026-04-27 13:47 | 51.61550 | -2.98263 | 19012 ft | 385 kts | 120° |
| 2026-04-27 13:47 | 51.60109 | -2.94611 | 19537 ft | 389 kts | 120° |
| 2026-04-27 13:48 | 51.58670 | -2.90906 | 20067 ft | 391 kts | 116° |
| 2026-04-27 13:48 | 51.57533 | -2.86939 | 20587 ft | 392 kts | 106° |
| 2026-04-27 13:48 | 51.56779 | -2.82729 | 21109 ft | 393 kts | 101° |
| 2026-04-27 13:48 | 51.56073 | -2.78466 | 21633 ft | 396 kts | 101° |
| 2026-04-27 13:49 | 51.55356 | -2.74176 | 22153 ft | 399 kts | 101° |
| 2026-04-27 13:49 | 51.54628 | -2.69855 | 22677 ft | 402 kts | 101° |
| 2026-04-27 13:49 | 51.53893 | -2.65507 | 23228 ft | 404 kts | 101° |
| 2026-04-27 13:49 | 51.53398 | -2.61092 | 23793 ft | 401 kts | 92° |
| 2026-04-27 13:50 | 51.53104 | -2.56629 | 24244 ft | 403 kts | 91° |
| 2026-04-27 13:50 | 51.52809 | -2.52143 | 24672 ft | 405 kts | 91° |
| 2026-04-27 13:50 | 51.52512 | -2.47636 | 25096 ft | 407 kts | 91° |
| 2026-04-27 13:50 | 51.52211 | -2.43108 | 25512 ft | 409 kts | 91° |
| 2026-04-27 13:51 | 51.51906 | -2.38553 | 25920 ft | 412 kts | 91° |
| 2026-04-27 13:51 | 51.51601 | -2.34026 | 26266 ft | 415 kts | 91° |
| 2026-04-27 13:51 | 51.51287 | -2.29406 | 26647 ft | 418 kts | 91° |
| 2026-04-27 13:51 | 51.50968 | -2.24761 | 27030 ft | 420 kts | 91° |
| 2026-04-27 13:52 | 51.50645 | -2.20084 | 27409 ft | 422 kts | 90° |
| 2026-04-27 13:52 | 51.50319 | -2.15394 | 27802 ft | 424 kts | 90° |
| 2026-04-27 13:52 | 51.49993 | -2.10680 | 28185 ft | 426 kts | 90° |
| 2026-04-27 13:52 | 51.49662 | -2.05937 | 28573 ft | 429 kts | 90° |
| 2026-04-27 13:53 | 51.48989 | -1.96389 | 29298 ft | 433 kts | 90° |
| 2026-04-27 13:53 | 51.48646 | -1.91582 | 29674 ft | 435 kts | 90° |
| 2026-04-27 13:53 | 51.48296 | -1.86735 | 29967 ft | 439 kts | 90° |
| 2026-04-27 13:54 | 51.47940 | -1.81855 | 30294 ft | 442 kts | 90° |
| 2026-04-27 13:54 | 51.47578 | -1.76950 | 30581 ft | 444 kts | 90° |
| 2026-04-27 13:54 | 51.47213 | -1.72023 | 30843 ft | 446 kts | 90° |
| 2026-04-27 13:54 | 51.46805 | -1.67070 | 31105 ft | 451 kts | 94° |
| 2026-04-27 13:55 | 51.46145 | -1.62116 | 31377 ft | 455 kts | 96° |
| 2026-04-27 13:55 | 51.45467 | -1.57154 | 31673 ft | 456 kts | 97° |
| 2026-04-27 13:55 | 51.44785 | -1.52191 | 32046 ft | 455 kts | 97° |
| 2026-04-27 13:55 | 51.44105 | -1.47235 | 32432 ft | 454 kts | 97° |
| 2026-04-27 13:56 | 51.43657 | -1.43963 | 32683 ft | 454 kts | 97° |
| 2026-04-27 13:56 | 51.42983 | -1.39023 | 33018 ft | 455 kts | 98° |
| 2026-04-27 13:56 | 51.42302 | -1.34063 | 33334 ft | 456 kts | 98° |
| 2026-04-27 13:56 | 51.41614 | -1.29106 | 33687 ft | 456 kts | 99° |
| 2026-04-27 13:57 | 51.40922 | -1.24159 | 34056 ft | 455 kts | 100° |
| 2026-04-27 13:57 | 51.39977 | -1.19305 | 34400 ft | 458 kts | 110° |
| 2026-04-27 13:57 | 51.38546 | -1.14735 | 34689 ft | 461 kts | 120° |
| 2026-04-27 13:57 | 51.36659 | -1.10564 | 34977 ft | 463 kts | 130° |
| 2026-04-27 13:58 | 51.34401 | -1.06876 | 35249 ft | 464 kts | 135° |
| 2026-04-27 13:58 | 51.32070 | -1.03291 | 35538 ft | 463 kts | 135° |
| 2026-04-27 13:58 | 51.29758 | -0.99728 | 35909 ft | 461 kts | 136° |
| 2026-04-27 13:58 | 51.27454 | -0.96177 | 36207 ft | 460 kts | 136° |
| 2026-04-27 13:59 | 51.25151 | -0.92631 | 36459 ft | 460 kts | 136° |
| 2026-04-27 13:59 | 51.22845 | -0.89088 | 36677 ft | 461 kts | 137° |
| 2026-04-27 13:59 | 51.20566 | -0.85593 | 36897 ft | 461 kts | 137° |
| 2026-04-27 13:59 | 51.18255 | -0.82058 | 37123 ft | 461 kts | 137° |
| 2026-04-27 14:00 | 51.15940 | -0.78522 | 37337 ft | 461 kts | 137° |
| 2026-04-27 14:00 | 51.13626 | -0.74996 | 37544 ft | 461 kts | 137° |
| 2026-04-27 14:00 | 51.11306 | -0.71468 | 37754 ft | 461 kts | 137° |
| 2026-04-27 14:00 | 51.08988 | -0.67953 | 37956 ft | 461 kts | 138° |
| 2026-04-27 14:01 | 51.06667 | -0.64439 | 38158 ft | 461 kts | 139° |
| 2026-04-27 14:01 | 51.04193 | -0.61219 | 38354 ft | 458 kts | 148° |
| 2026-04-27 14:01 | 51.01553 | -0.58396 | 38545 ft | 458 kts | 148° |
| 2026-04-27 14:01 | 50.98911 | -0.55576 | 38722 ft | 458 kts | 148° |
| 2026-04-27 14:02 | 50.96267 | -0.52750 | 38893 ft | 458 kts | 148° |
| 2026-04-27 14:02 | 50.93631 | -0.49932 | 39033 ft | 458 kts | 148° |
| 2026-04-27 14:02 | 50.90989 | -0.47115 | 39180 ft | 457 kts | 148° |
| 2026-04-27 14:03 | 50.85700 | -0.41506 | 39268 ft | 457 kts | 148° |
| 2026-04-27 14:03 | 50.80426 | -0.35938 | 39275 ft | 455 kts | 148° |
| 2026-04-27 14:04 | 50.75154 | -0.30389 | 39276 ft | 455 kts | 148° |
| 2026-04-27 14:04 | 50.69877 | -0.24838 | 39277 ft | 455 kts | 148° |
| 2026-04-27 14:05 | 50.64606 | -0.19295 | 39270 ft | 455 kts | 148° |
| 2026-04-27 14:05 | 50.59334 | -0.13771 | 39293 ft | 455 kts | 148° |
| 2026-04-27 14:06 | 50.54064 | -0.08272 | 39299 ft | 454 kts | 149° |
| 2026-04-27 14:06 | 50.48826 | -0.02829 | 39301 ft | 454 kts | 149° |
| 2026-04-27 14:07 | 50.43558 | 0.02644 | 39299 ft | 454 kts | 149° |
| 2026-04-27 14:07 | 50.38280 | 0.08113 | 39287 ft | 455 kts | 149° |
| 2026-04-27 14:08 | 50.32997 | 0.13574 | 39290 ft | 455 kts | 149° |
| 2026-04-27 14:08 | 50.27705 | 0.19015 | 39282 ft | 455 kts | 149° |
| 2026-04-27 14:09 | 50.22411 | 0.24448 | 39285 ft | 455 kts | 149° |
| 2026-04-27 14:09 | 50.17119 | 0.29883 | 39286 ft | 455 kts | 149° |
| 2026-04-27 14:10 | 50.11840 | 0.35326 | 39291 ft | 455 kts | 149° |
| 2026-04-27 14:10 | 50.06556 | 0.40735 | 39292 ft | 454 kts | 149° |
| 2026-04-27 14:11 | 50.01274 | 0.46121 | 39293 ft | 454 kts | 149° |
| 2026-04-27 14:11 | 49.95995 | 0.51505 | 39264 ft | 454 kts | 149° |
| 2026-04-27 14:12 | 49.90722 | 0.56869 | 39274 ft | 453 kts | 149° |
| 2026-04-27 14:12 | 49.85511 | 0.62225 | 39273 ft | 453 kts | 145° |
| 2026-04-27 14:13 | 49.80614 | 0.68388 | 39274 ft | 454 kts | 143° |
| 2026-04-27 14:13 | 49.75717 | 0.74543 | 39266 ft | 453 kts | 143° |
| 2026-04-27 14:14 | 49.70815 | 0.80676 | 39257 ft | 453 kts | 144° |
| 2026-04-27 14:14 | 49.65921 | 0.86784 | 39252 ft | 452 kts | 144° |
| 2026-04-27 14:15 | 49.61030 | 0.92900 | 39254 ft | 452 kts | 144° |
| 2026-04-27 14:15 | 49.56134 | 0.99001 | 39236 ft | 453 kts | 144° |
| 2026-04-27 14:16 | 49.51227 | 1.05086 | 39219 ft | 453 kts | 144° |
| 2026-04-27 14:16 | 49.46322 | 1.11154 | 39230 ft | 452 kts | 144° |
| 2026-04-27 14:17 | 49.41416 | 1.17202 | 39237 ft | 452 kts | 144° |
| 2026-04-27 14:17 | 49.36512 | 1.23244 | 39236 ft | 452 kts | 144° |
| 2026-04-27 14:18 | 49.31612 | 1.29285 | 39235 ft | 452 kts | 144° |
| 2026-04-27 14:18 | 49.26705 | 1.35294 | 39228 ft | 452 kts | 144° |
| 2026-04-27 14:19 | 49.21791 | 1.41283 | 39220 ft | 452 kts | 144° |
| 2026-04-27 14:19 | 49.16873 | 1.47282 | 39221 ft | 452 kts | 144° |
| 2026-04-27 14:20 | 49.11953 | 1.53271 | 39220 ft | 452 kts | 144° |
| 2026-04-27 14:20 | 49.07030 | 1.59236 | 39214 ft | 452 kts | 145° |
| 2026-04-27 14:21 | 49.02099 | 1.65190 | 39206 ft | 452 kts | 145° |
| 2026-04-27 14:21 | 48.97204 | 1.71097 | 39207 ft | 452 kts | 145° |
| 2026-04-27 14:22 | 48.92274 | 1.77037 | 39208 ft | 452 kts | 145° |
| 2026-04-27 14:22 | 48.87333 | 1.82967 | 39203 ft | 453 kts | 145° |
| 2026-04-27 14:23 | 48.82381 | 1.88887 | 39201 ft | 453 kts | 145° |
| 2026-04-27 14:23 | 48.77426 | 1.94808 | 39199 ft | 454 kts | 145° |
| 2026-04-27 14:24 | 48.72464 | 2.00710 | 39202 ft | 454 kts | 145° |
| 2026-04-27 14:24 | 48.67499 | 2.06607 | 39201 ft | 453 kts | 145° |
| 2026-04-27 14:25 | 48.62536 | 2.12496 | 39188 ft | 453 kts | 145° |
| 2026-04-27 14:25 | 48.57571 | 2.18374 | 39186 ft | 454 kts | 144° |
| 2026-04-27 14:26 | 48.53022 | 2.25042 | 39183 ft | 457 kts | 138° |
| 2026-04-27 14:26 | 48.48534 | 2.31850 | 39173 ft | 458 kts | 138° |
| 2026-04-27 14:27 | 48.44035 | 2.38652 | 39176 ft | 458 kts | 138° |
| 2026-04-27 14:27 | 48.39534 | 2.45445 | 39166 ft | 458 kts | 138° |
| 2026-04-27 14:28 | 48.35027 | 2.52229 | 39170 ft | 458 kts | 138° |
| 2026-04-27 14:28 | 48.30514 | 2.58995 | 39172 ft | 458 kts | 140° |
| 2026-04-27 14:29 | 48.25388 | 2.64461 | 39163 ft | 448 kts | 158° |
| 2026-04-27 14:29 | 48.19745 | 2.68396 | 39161 ft | 448 kts | 158° |
| 2026-04-27 14:30 | 48.14227 | 2.72801 | 39149 ft | 450 kts | 155° |
| 2026-04-27 14:30 | 48.08795 | 2.77358 | 39153 ft | 450 kts | 156° |
| 2026-04-27 14:31 | 48.03109 | 2.81167 | 39160 ft | 447 kts | 161° |
| 2026-04-27 14:31 | 47.97381 | 2.84786 | 39151 ft | 447 kts | 162° |
| 2026-04-27 14:32 | 47.91646 | 2.88392 | 39154 ft | 447 kts | 161° |
| 2026-04-27 14:32 | 47.85914 | 2.92013 | 39158 ft | 447 kts | 161° |
| 2026-04-27 14:33 | 47.80182 | 2.95642 | 39163 ft | 447 kts | 161° |
| 2026-04-27 14:33 | 47.74450 | 2.99257 | 39145 ft | 448 kts | 162° |
| 2026-04-27 14:34 | 47.68714 | 3.02860 | 39146 ft | 448 kts | 162° |
| 2026-04-27 14:34 | 47.62966 | 3.06451 | 39148 ft | 448 kts | 162° |
| 2026-04-27 14:35 | 47.57256 | 3.10027 | 39153 ft | 448 kts | 162° |
| 2026-04-27 14:35 | 47.51472 | 3.13654 | 39150 ft | 448 kts | 162° |
| 2026-04-27 14:36 | 47.45726 | 3.17234 | 39151 ft | 448 kts | 162° |
| 2026-04-27 14:36 | 47.39980 | 3.20792 | 39146 ft | 448 kts | 162° |
| 2026-04-27 14:37 | 47.34273 | 3.24326 | 39147 ft | 448 kts | 162° |
| 2026-04-27 14:37 | 47.28528 | 3.27875 | 39136 ft | 447 kts | 162° |
| 2026-04-27 14:38 | 47.22784 | 3.31416 | 39125 ft | 448 kts | 162° |
| 2026-04-27 14:38 | 47.17036 | 3.34958 | 39124 ft | 448 kts | 162° |
| 2026-04-27 14:39 | 47.11281 | 3.38494 | 39123 ft | 448 kts | 162° |
| 2026-04-27 14:39 | 47.05523 | 3.42013 | 39136 ft | 448 kts | 162° |
| 2026-04-27 14:40 | 46.99766 | 3.45531 | 39139 ft | 448 kts | 162° |
| 2026-04-27 14:40 | 46.94006 | 3.49040 | 39142 ft | 448 kts | 162° |
| 2026-04-27 14:41 | 46.88244 | 3.52534 | 39129 ft | 448 kts | 162° |
| 2026-04-27 14:41 | 46.82480 | 3.56026 | 39131 ft | 448 kts | 162° |
| 2026-04-27 14:42 | 46.76756 | 3.59651 | 39138 ft | 452 kts | 154° |
| 2026-04-27 14:42 | 46.74142 | 3.62245 | 39137 ft | 458 kts | 143° |
| 2026-04-27 14:42 | 46.71897 | 3.65555 | 39135 ft | 462 kts | 131° |
| 2026-04-27 14:42 | 46.70119 | 3.69474 | 39134 ft | 466 kts | 119° |
| 2026-04-27 14:43 | 46.68891 | 3.73856 | 39122 ft | 469 kts | 107° |
| 2026-04-27 14:43 | 46.67314 | 3.83089 | 39116 ft | 470 kts | 105° |
| 2026-04-27 14:44 | 46.65736 | 3.92336 | 39124 ft | 471 kts | 105° |
| 2026-04-27 14:44 | 46.64414 | 4.00033 | 39127 ft | 472 kts | 105° |
| 2026-04-27 14:45 | 46.62804 | 4.09288 | 39123 ft | 472 kts | 105° |
| 2026-04-27 14:45 | 46.61179 | 4.18548 | 39127 ft | 472 kts | 105° |
| 2026-04-27 14:46 | 46.59552 | 4.27802 | 39132 ft | 473 kts | 105° |
| 2026-04-27 14:46 | 46.57925 | 4.37060 | 39134 ft | 473 kts | 105° |
| 2026-04-27 14:47 | 46.56295 | 4.46311 | 39136 ft | 472 kts | 105° |
| 2026-04-27 14:47 | 46.54648 | 4.55554 | 39134 ft | 472 kts | 105° |
| 2026-04-27 14:48 | 46.52996 | 4.64787 | 39134 ft | 472 kts | 105° |
| 2026-04-27 14:48 | 46.50496 | 4.78629 | 39128 ft | 472 kts | 106° |
| 2026-04-27 14:49 | 46.48822 | 4.87849 | 39125 ft | 472 kts | 105° |
| 2026-04-27 14:49 | 46.47150 | 4.97065 | 39128 ft | 472 kts | 105° |
| 2026-04-27 14:50 | 46.45468 | 5.06274 | 39115 ft | 472 kts | 105° |
| 2026-04-27 14:50 | 46.43771 | 5.15468 | 39129 ft | 472 kts | 106° |
| 2026-04-27 14:51 | 46.42075 | 5.24647 | 39136 ft | 471 kts | 105° |
| 2026-04-27 14:51 | 46.40371 | 5.33804 | 39140 ft | 470 kts | 106° |
| 2026-04-27 14:52 | 46.38026 | 5.42585 | 39135 ft | 466 kts | 122° |
| 2026-04-27 14:52 | 46.34155 | 5.50018 | 39140 ft | 462 kts | 133° |
| 2026-04-27 14:53 | 46.29974 | 5.57084 | 39133 ft | 462 kts | 133° |
| 2026-04-27 14:53 | 46.25829 | 5.64108 | 39129 ft | 463 kts | 133° |
| 2026-04-27 14:54 | 46.21646 | 5.71181 | 39125 ft | 463 kts | 133° |
| 2026-04-27 14:54 | 46.17427 | 5.78282 | 39127 ft | 463 kts | 133° |
| 2026-04-27 14:55 | 46.13262 | 5.85271 | 39131 ft | 463 kts | 133° |
| 2026-04-27 14:55 | 46.09068 | 5.92291 | 39125 ft | 462 kts | 133° |
| 2026-04-27 14:56 | 46.04865 | 5.99301 | 39127 ft | 463 kts | 133° |
| 2026-04-27 14:56 | 46.00654 | 6.06315 | 39114 ft | 463 kts | 133° |
| 2026-04-27 14:57 | 45.96441 | 6.13314 | 39116 ft | 463 kts | 133° |
| 2026-04-27 14:57 | 45.92221 | 6.20305 | 39119 ft | 463 kts | 133° |
| 2026-04-27 14:58 | 45.87993 | 6.27288 | 39120 ft | 463 kts | 133° |
| 2026-04-27 14:58 | 45.83754 | 6.34267 | 39122 ft | 464 kts | 133° |
| 2026-04-27 14:59 | 45.79198 | 6.40748 | 39112 ft | 460 kts | 146° |
| 2026-04-27 14:59 | 45.73991 | 6.46054 | 39110 ft | 460 kts | 147° |
| 2026-04-27 15:00 | 45.68777 | 6.51357 | 39110 ft | 460 kts | 147° |
| 2026-04-27 15:00 | 45.63557 | 6.56666 | 39114 ft | 461 kts | 147° |
| 2026-04-27 15:01 | 45.58366 | 6.61929 | 39121 ft | 461 kts | 147° |
| 2026-04-27 15:01 | 45.53137 | 6.67216 | 39117 ft | 461 kts | 146° |
| 2026-04-27 15:02 | 45.47904 | 6.72495 | 39128 ft | 460 kts | 147° |
| 2026-04-27 15:02 | 45.42676 | 6.77756 | 39127 ft | 460 kts | 146° |
| 2026-04-27 15:03 | 45.37440 | 6.83014 | 39125 ft | 460 kts | 147° |
| 2026-04-27 15:03 | 45.32203 | 6.88259 | 39137 ft | 461 kts | 147° |
| 2026-04-27 15:04 | 45.26977 | 6.93520 | 39142 ft | 461 kts | 142° |
| 2026-04-27 15:04 | 45.22286 | 6.99742 | 39140 ft | 462 kts | 136° |
| 2026-04-27 15:05 | 45.17691 | 7.06096 | 39143 ft | 462 kts | 136° |
| 2026-04-27 15:05 | 45.13078 | 7.12420 | 39141 ft | 461 kts | 136° |
| 2026-04-27 15:06 | 45.08907 | 7.19204 | 39147 ft | 460 kts | 124° |
| 2026-04-27 15:06 | 45.05215 | 7.26672 | 39146 ft | 460 kts | 124° |
| 2026-04-27 15:07 | 45.01529 | 7.34081 | 39145 ft | 461 kts | 125° |
| 2026-04-27 15:07 | 44.97997 | 7.41622 | 39085 ft | 460 kts | 116° |
| 2026-04-27 15:08 | 44.95475 | 7.49840 | 39088 ft | 459 kts | 112° |
| 2026-04-27 15:08 | 44.92990 | 7.58141 | 39080 ft | 459 kts | 112° |
| 2026-04-27 15:09 | 44.90490 | 7.66427 | 39081 ft | 459 kts | 112° |
| 2026-04-27 15:09 | 44.87990 | 7.74703 | 39083 ft | 458 kts | 112° |
| 2026-04-27 15:10 | 44.85493 | 7.82964 | 39080 ft | 458 kts | 112° |
| 2026-04-27 15:10 | 44.82993 | 7.91218 | 39080 ft | 458 kts | 112° |
| 2026-04-27 15:11 | 44.80483 | 7.99460 | 39089 ft | 458 kts | 112° |
| 2026-04-27 15:11 | 44.77963 | 8.07689 | 39102 ft | 457 kts | 112° |
| 2026-04-27 15:12 | 44.75441 | 8.15892 | 39097 ft | 457 kts | 112° |
| 2026-04-27 15:12 | 44.72917 | 8.24087 | 39102 ft | 456 kts | 112° |
| 2026-04-27 15:13 | 44.70389 | 8.32273 | 39099 ft | 457 kts | 112° |
| 2026-04-27 15:13 | 44.67859 | 8.40454 | 39111 ft | 456 kts | 112° |
| 2026-04-27 15:14 | 44.65332 | 8.48614 | 39113 ft | 455 kts | 112° |
| 2026-04-27 15:14 | 44.62800 | 8.56747 | 39125 ft | 454 kts | 112° |
| 2026-04-27 15:15 | 44.60252 | 8.64867 | 39130 ft | 454 kts | 112° |
| 2026-04-27 15:15 | 44.57220 | 8.72633 | 39130 ft | 454 kts | 119° |
| 2026-04-27 15:16 | 44.54054 | 8.80292 | 39130 ft | 454 kts | 119° |
| 2026-04-27 15:16 | 44.50890 | 8.87940 | 39127 ft | 454 kts | 119° |
| 2026-04-27 15:17 | 44.47719 | 8.95585 | 39127 ft | 454 kts | 119° |
| 2026-04-27 15:17 | 44.44537 | 9.03210 | 39128 ft | 454 kts | 119° |
| 2026-04-27 15:18 | 44.41374 | 9.10856 | 39133 ft | 454 kts | 118° |
| 2026-04-27 15:18 | 44.38363 | 9.18618 | 39134 ft | 454 kts | 117° |
| 2026-04-27 15:19 | 44.35424 | 9.26429 | 39129 ft | 454 kts | 117° |
| 2026-04-27 15:19 | 44.32452 | 9.34196 | 39127 ft | 453 kts | 117° |
| 2026-04-27 15:20 | 44.29438 | 9.41932 | 39130 ft | 453 kts | 117° |
| 2026-04-27 15:20 | 44.26415 | 9.49661 | 39135 ft | 454 kts | 118° |
| 2026-04-27 15:21 | 44.23392 | 9.57386 | 39127 ft | 454 kts | 118° |
| 2026-04-27 15:21 | 44.20373 | 9.65114 | 39128 ft | 454 kts | 118° |
| 2026-04-27 15:22 | 44.17346 | 9.72838 | 39126 ft | 454 kts | 118° |
| 2026-04-27 15:22 | 44.14307 | 9.80551 | 39125 ft | 454 kts | 118° |
| 2026-04-27 15:23 | 44.11267 | 9.88263 | 39130 ft | 454 kts | 118° |
| 2026-04-27 15:23 | 44.08236 | 9.95908 | 39126 ft | 454 kts | 118° |
| 2026-04-27 15:24 | 44.05162 | 10.03648 | 39124 ft | 454 kts | 118° |
| 2026-04-27 15:24 | 44.02127 | 10.11285 | 39123 ft | 454 kts | 118° |
| 2026-04-27 15:25 | 43.99073 | 10.18963 | 39124 ft | 454 kts | 118° |
| 2026-04-27 15:25 | 43.96009 | 10.26639 | 39127 ft | 455 kts | 118° |
| 2026-04-27 15:26 | 43.92925 | 10.34313 | 39112 ft | 455 kts | 118° |
| 2026-04-27 15:26 | 43.89833 | 10.41983 | 39114 ft | 456 kts | 118° |
| 2026-04-27 15:27 | 43.86737 | 10.49648 | 39118 ft | 456 kts | 118° |
| 2026-04-27 15:27 | 43.83640 | 10.57322 | 39120 ft | 456 kts | 118° |
| 2026-04-27 15:28 | 43.80533 | 10.64997 | 39128 ft | 457 kts | 118° |
| 2026-04-27 15:28 | 43.77414 | 10.72667 | 39125 ft | 457 kts | 118° |
| 2026-04-27 15:29 | 43.74290 | 10.80330 | 39111 ft | 457 kts | 119° |
| 2026-04-27 15:29 | 43.71157 | 10.87985 | 39108 ft | 458 kts | 119° |
| 2026-04-27 15:30 | 43.68020 | 10.95636 | 39105 ft | 457 kts | 119° |
| 2026-04-27 15:30 | 43.65410 | 11.01987 | 39106 ft | 457 kts | 119° |
| 2026-04-27 15:31 | 43.62269 | 11.09620 | 39109 ft | 457 kts | 119° |
| 2026-04-27 15:31 | 43.59121 | 11.17247 | 39120 ft | 457 kts | 119° |
| 2026-04-27 15:32 | 43.55968 | 11.24857 | 39120 ft | 457 kts | 119° |
| 2026-04-27 15:32 | 43.52807 | 11.32461 | 39121 ft | 457 kts | 119° |
| 2026-04-27 15:33 | 43.49645 | 11.40068 | 39122 ft | 457 kts | 119° |
| 2026-04-27 15:33 | 43.46481 | 11.47653 | 39117 ft | 457 kts | 119° |
| 2026-04-27 15:34 | 43.43312 | 11.55223 | 39113 ft | 456 kts | 119° |
| 2026-04-27 15:34 | 43.40140 | 11.62785 | 39110 ft | 456 kts | 119° |
| 2026-04-27 15:35 | 43.36963 | 11.70334 | 39114 ft | 456 kts | 119° |
| 2026-04-27 15:35 | 43.33779 | 11.77867 | 39111 ft | 456 kts | 119° |
| 2026-04-27 15:36 | 43.30593 | 11.85393 | 39109 ft | 456 kts | 119° |
| 2026-04-27 15:36 | 43.27432 | 11.92856 | 39108 ft | 455 kts | 119° |
| 2026-04-27 15:37 | 43.24250 | 12.00369 | 39102 ft | 455 kts | 119° |
| 2026-04-27 15:37 | 43.21054 | 12.07866 | 39108 ft | 455 kts | 120° |
| 2026-04-27 15:38 | 43.17852 | 12.15346 | 39101 ft | 455 kts | 120° |
| 2026-04-27 15:38 | 43.14645 | 12.22815 | 39089 ft | 455 kts | 120° |
| 2026-04-27 15:39 | 43.11439 | 12.30272 | 39088 ft | 455 kts | 120° |
| 2026-04-27 15:39 | 43.08232 | 12.37736 | 39091 ft | 455 kts | 120° |
| 2026-04-27 15:40 | 43.05021 | 12.45185 | 39087 ft | 455 kts | 120° |
| 2026-04-27 15:40 | 43.01797 | 12.52634 | 39089 ft | 455 kts | 120° |
| 2026-04-27 15:41 | 42.98570 | 12.60073 | 39089 ft | 456 kts | 120° |
| 2026-04-27 15:41 | 42.95333 | 12.67519 | 39093 ft | 456 kts | 120° |
| 2026-04-27 15:42 | 42.92113 | 12.74906 | 39096 ft | 456 kts | 120° |
| 2026-04-27 15:42 | 42.88862 | 12.82342 | 39102 ft | 456 kts | 120° |
| 2026-04-27 15:43 | 42.85612 | 12.89767 | 39105 ft | 456 kts | 120° |
| 2026-04-27 15:43 | 42.82349 | 12.97174 | 39107 ft | 456 kts | 120° |
| 2026-04-27 15:44 | 42.79088 | 13.04580 | 39098 ft | 455 kts | 120° |
| 2026-04-27 15:44 | 42.75825 | 13.11976 | 39107 ft | 456 kts | 120° |
| 2026-04-27 15:45 | 42.72553 | 13.19357 | 39110 ft | 456 kts | 120° |
| 2026-04-27 15:45 | 42.69300 | 13.26687 | 39111 ft | 456 kts | 120° |
| 2026-04-27 15:46 | 42.66018 | 13.34059 | 39113 ft | 456 kts | 120° |
| 2026-04-27 15:46 | 42.62734 | 13.41427 | 39108 ft | 456 kts | 120° |
| 2026-04-27 15:47 | 42.59446 | 13.48796 | 39110 ft | 456 kts | 120° |
| 2026-04-27 15:47 | 42.56143 | 13.56145 | 39107 ft | 456 kts | 121° |
| 2026-04-27 15:48 | 42.52839 | 13.63504 | 39103 ft | 457 kts | 120° |
| 2026-04-27 15:49 | 42.47884 | 13.74532 | 39102 ft | 457 kts | 121° |
| 2026-04-27 15:49 | 42.44553 | 13.81877 | 39098 ft | 457 kts | 121° |
| 2026-04-27 15:50 | 42.41218 | 13.89211 | 39108 ft | 457 kts | 121° |
| 2026-04-27 15:50 | 42.37891 | 13.96549 | 39102 ft | 458 kts | 121° |
| 2026-04-27 15:51 | 42.34554 | 14.03881 | 39088 ft | 458 kts | 121° |
| 2026-04-27 15:51 | 42.31228 | 14.11174 | 39082 ft | 459 kts | 121° |
| 2026-04-27 15:52 | 42.27873 | 14.18504 | 39083 ft | 459 kts | 121° |
| 2026-04-27 15:52 | 42.24499 | 14.25829 | 39086 ft | 460 kts | 121° |
| 2026-04-27 15:53 | 42.21124 | 14.33166 | 39085 ft | 460 kts | 121° |
| 2026-04-27 15:53 | 42.17743 | 14.40507 | 39090 ft | 461 kts | 121° |
| 2026-04-27 15:54 | 42.14356 | 14.47849 | 39096 ft | 462 kts | 121° |
| 2026-04-27 15:54 | 42.10952 | 14.55186 | 39097 ft | 462 kts | 121° |
| 2026-04-27 15:55 | 42.07542 | 14.62515 | 39095 ft | 462 kts | 122° |
| 2026-04-27 15:55 | 42.04132 | 14.69839 | 39088 ft | 462 kts | 122° |
| 2026-04-27 15:56 | 42.00715 | 14.77168 | 39089 ft | 463 kts | 122° |
| 2026-04-27 15:56 | 41.97287 | 14.84491 | 39090 ft | 463 kts | 122° |
| 2026-04-27 15:57 | 41.93853 | 14.91811 | 39095 ft | 463 kts | 122° |
| 2026-04-27 15:57 | 41.90412 | 14.99127 | 39094 ft | 463 kts | 122° |
| 2026-04-27 15:58 | 41.86968 | 15.06436 | 39090 ft | 463 kts | 122° |
| 2026-04-27 15:58 | 41.83515 | 15.13742 | 39087 ft | 464 kts | 122° |
| 2026-04-27 15:59 | 41.80060 | 15.21044 | 39088 ft | 464 kts | 122° |
| 2026-04-27 15:59 | 41.76597 | 15.28338 | 39084 ft | 464 kts | 122° |
| 2026-04-27 16:00 | 41.73125 | 15.35626 | 39083 ft | 464 kts | 122° |
| 2026-04-27 16:00 | 41.69650 | 15.42913 | 39089 ft | 465 kts | 122° |
| 2026-04-27 16:01 | 41.66185 | 15.50151 | 39091 ft | 465 kts | 122° |
| 2026-04-27 16:01 | 41.62696 | 15.57431 | 39096 ft | 465 kts | 122° |
| 2026-04-27 16:02 | 41.59199 | 15.64705 | 39104 ft | 465 kts | 123° |
| 2026-04-27 16:02 | 41.55698 | 15.71979 | 39102 ft | 466 kts | 123° |
| 2026-04-27 16:03 | 41.52190 | 15.79253 | 39099 ft | 466 kts | 123° |
| 2026-04-27 16:03 | 41.48909 | 15.86704 | 39087 ft | 466 kts | 116° |
| 2026-04-27 16:04 | 41.46024 | 15.94448 | 39082 ft | 466 kts | 116° |
| 2026-04-27 16:04 | 41.43125 | 16.02188 | 39089 ft | 466 kts | 116° |
| 2026-04-27 16:05 | 41.40221 | 16.09912 | 39093 ft | 467 kts | 117° |
| 2026-04-27 16:05 | 41.37297 | 16.17627 | 39088 ft | 467 kts | 117° |
| 2026-04-27 16:06 | 41.34247 | 16.25257 | 39093 ft | 467 kts | 119° |
| 2026-04-27 16:06 | 41.31120 | 16.32826 | 39094 ft | 467 kts | 119° |
| 2026-04-27 16:07 | 41.28004 | 16.40411 | 39098 ft | 467 kts | 118° |
| 2026-04-27 16:07 | 41.24932 | 16.47956 | 39098 ft | 467 kts | 118° |
| 2026-04-27 16:08 | 41.21818 | 16.55597 | 39095 ft | 467 kts | 119° |
| 2026-04-27 16:08 | 41.18711 | 16.63174 | 39081 ft | 467 kts | 119° |
| 2026-04-27 16:09 | 41.15614 | 16.70686 | 39091 ft | 467 kts | 119° |
| 2026-04-27 16:09 | 41.10931 | 16.82028 | 39096 ft | 467 kts | 119° |
| 2026-04-27 16:10 | 41.04674 | 16.97123 | 39105 ft | 467 kts | 120° |
| 2026-04-27 16:11 | 40.99973 | 17.08416 | 39106 ft | 467 kts | 120° |
| 2026-04-27 16:12 | 40.95267 | 17.19702 | 39106 ft | 467 kts | 120° |
| 2026-04-27 16:13 | 40.90547 | 17.30957 | 39099 ft | 466 kts | 120° |
| 2026-04-27 16:13 | 40.85827 | 17.42200 | 39085 ft | 466 kts | 120° |
| 2026-04-27 16:14 | 40.79494 | 17.57151 | 39088 ft | 466 kts | 120° |
| 2026-04-27 16:15 | 40.73152 | 17.72091 | 39090 ft | 467 kts | 120° |
| 2026-04-27 16:16 | 40.66774 | 17.87009 | 39097 ft | 467 kts | 120° |
| 2026-04-27 16:17 | 40.60258 | 18.01806 | 39095 ft | 466 kts | 127° |
| 2026-04-27 16:18 | 40.53306 | 18.14482 | 39080 ft | 467 kts | 127° |
| 2026-04-27 16:19 | 40.48885 | 18.22507 | 39090 ft | 466 kts | 127° |
| 2026-04-27 16:20 | 40.41280 | 18.36273 | 39092 ft | 465 kts | 127° |
| 2026-04-27 16:21 | 40.36194 | 18.45456 | 39102 ft | 464 kts | 127° |
| 2026-04-27 16:22 | 40.28627 | 18.59078 | 39092 ft | 463 kts | 128° |
| 2026-04-27 16:22 | 40.22932 | 18.69285 | 39077 ft | 462 kts | 128° |
| 2026-04-27 16:23 | 40.17231 | 18.79463 | 39095 ft | 462 kts | 128° |
| 2026-04-27 16:24 | 40.13425 | 18.86231 | 39085 ft | 462 kts | 128° |
| 2026-04-27 16:25 | 40.05731 | 18.99701 | 39084 ft | 461 kts | 135° |
| 2026-04-27 16:26 | 39.96139 | 19.10685 | 39089 ft | 459 kts | 142° |
| 2026-04-27 16:27 | 39.86448 | 19.21498 | 39087 ft | 459 kts | 142° |
| 2026-04-27 16:28 | 39.74328 | 19.34986 | 39083 ft | 459 kts | 142° |
| 2026-04-27 16:29 | 39.61366 | 19.46402 | 39075 ft | 454 kts | 147° |
| 2026-04-27 16:30 | 39.57713 | 19.52931 | 39048 ft | 458 kts | 105° |
| 2026-04-27 16:30 | 39.55407 | 19.60532 | 39032 ft | 454 kts | 132° |
| 2026-04-27 16:31 | 39.47717 | 19.67294 | 39027 ft | 448 kts | 154° |
| 2026-04-27 16:31 | 39.43455 | 19.73065 | 39027 ft | 456 kts | 112° |
| 2026-04-27 16:32 | 39.43187 | 19.81039 | 39023 ft | 449 kts | 67° |
| 2026-04-27 16:32 | 39.44685 | 19.84514 | 39055 ft | 442 kts | 45° |
| 2026-04-27 16:33 | 39.49850 | 19.88193 | 39060 ft | 425 kts | 0° |
| 2026-04-27 16:33 | 39.52747 | 19.87906 | 39060 ft | 415 kts | 338° |
| 2026-04-27 16:33 | 39.55270 | 19.86234 | 39058 ft | 407 kts | 316° |
| 2026-04-27 16:33 | 39.57050 | 19.83453 | 39060 ft | 401 kts | 295° |
| 2026-04-27 16:34 | 39.59459 | 19.76885 | 39018 ft | 405 kts | 295° |
| 2026-04-27 16:34 | 39.60705 | 19.73604 | 38468 ft | 405 kts | 295° |
| 2026-04-27 16:34 | 39.61961 | 19.70290 | 36846 ft | 417 kts | 295° |
| 2026-04-27 16:35 | 39.63239 | 19.66896 | 35853 ft | 417 kts | 295° |
| 2026-04-27 16:35 | 39.64490 | 19.63561 | 35232 ft | 407 kts | 295° |
| 2026-04-27 16:35 | 39.66916 | 19.57062 | 33822 ft | 394 kts | 295° |
| 2026-04-27 16:36 | 39.68096 | 19.53876 | 33023 ft | 388 kts | 295° |
| 2026-04-27 16:36 | 39.69256 | 19.50734 | 32275 ft | 383 kts | 295° |
| 2026-04-27 16:36 | 39.70401 | 19.47633 | 31510 ft | 379 kts | 295° |
| 2026-04-27 16:36 | 39.71531 | 19.44570 | 30757 ft | 374 kts | 295° |
| 2026-04-27 16:37 | 39.72654 | 19.41531 | 30021 ft | 371 kts | 295° |
| 2026-04-27 16:37 | 39.73763 | 19.38528 | 29223 ft | 367 kts | 295° |
| 2026-04-27 16:37 | 39.74858 | 19.35555 | 28472 ft | 362 kts | 295° |
| 2026-04-27 16:37 | 39.75936 | 19.32617 | 27760 ft | 358 kts | 295° |
| 2026-04-27 16:38 | 39.76999 | 19.29709 | 27064 ft | 354 kts | 295° |
| 2026-04-27 16:38 | 39.78047 | 19.26830 | 26375 ft | 350 kts | 295° |
| 2026-04-27 16:38 | 39.79079 | 19.23985 | 25696 ft | 346 kts | 295° |
| 2026-04-27 16:38 | 39.80098 | 19.21165 | 25019 ft | 342 kts | 295° |
| 2026-04-27 16:39 | 39.81089 | 19.18411 | 24355 ft | 339 kts | 295° |
| 2026-04-27 16:39 | 39.82093 | 19.15611 | 23686 ft | 335 kts | 295° |
| 2026-04-27 16:39 | 39.83057 | 19.12909 | 22930 ft | 332 kts | 295° |
| 2026-04-27 16:39 | 39.84026 | 19.10195 | 22198 ft | 329 kts | 295° |
| 2026-04-27 16:40 | 39.84984 | 19.07507 | 21495 ft | 326 kts | 295° |
| 2026-04-27 16:40 | 39.85932 | 19.04845 | 20813 ft | 323 kts | 295° |
| 2026-04-27 16:40 | 39.86873 | 19.02203 | 20152 ft | 320 kts | 295° |
| 2026-04-27 16:40 | 39.87806 | 18.99582 | 19505 ft | 318 kts | 295° |
| 2026-04-27 16:41 | 39.88731 | 18.96982 | 18885 ft | 315 kts | 295° |
| 2026-04-27 16:41 | 39.89651 | 18.94397 | 18261 ft | 313 kts | 295° |
| 2026-04-27 16:41 | 39.90562 | 18.91834 | 17576 ft | 311 kts | 295° |
| 2026-04-27 16:41 | 39.91416 | 18.89264 | 16953 ft | 307 kts | 287° |
| 2026-04-27 16:42 | 39.91674 | 18.86539 | 16542 ft | 304 kts | 267° |
| 2026-04-27 16:42 | 39.91166 | 18.83855 | 16290 ft | 309 kts | 246° |
| 2026-04-27 16:42 | 39.89913 | 18.81579 | 16036 ft | 313 kts | 224° |
| 2026-04-27 16:42 | 39.88060 | 18.80077 | 15795 ft | 319 kts | 202° |
| 2026-04-27 16:43 | 39.85876 | 18.79603 | 15537 ft | 322 kts | 179° |
| 2026-04-27 16:43 | 39.83704 | 18.80264 | 15289 ft | 324 kts | 155° |
| 2026-04-27 16:43 | 39.81891 | 18.81975 | 15037 ft | 324 kts | 132° |
| 2026-04-27 16:43 | 39.80633 | 18.84401 | 14792 ft | 324 kts | 120° |
| 2026-04-27 16:44 | 39.79493 | 18.86921 | 14558 ft | 323 kts | 120° |
| 2026-04-27 16:44 | 39.78356 | 18.89435 | 14318 ft | 321 kts | 120° |
| 2026-04-27 16:44 | 39.77224 | 18.91932 | 14080 ft | 320 kts | 120° |
| 2026-04-27 16:44 | 39.76096 | 18.94413 | 13838 ft | 318 kts | 120° |
| 2026-04-27 16:45 | 39.74975 | 18.96879 | 13577 ft | 316 kts | 120° |
| 2026-04-27 16:45 | 39.73859 | 18.99333 | 13306 ft | 315 kts | 120° |
| 2026-04-27 16:45 | 39.72748 | 19.01774 | 13042 ft | 313 kts | 120° |
| 2026-04-27 16:45 | 39.71639 | 19.04202 | 12787 ft | 312 kts | 121° |
| 2026-04-27 16:46 | 39.70533 | 19.06620 | 12530 ft | 310 kts | 121° |
| 2026-04-27 16:46 | 39.69432 | 19.09020 | 12276 ft | 309 kts | 121° |
| 2026-04-27 16:46 | 39.68336 | 19.11412 | 12022 ft | 308 kts | 121° |
| 2026-04-27 16:46 | 39.67248 | 19.13791 | 11765 ft | 305 kts | 121° |
| 2026-04-27 16:47 | 39.66168 | 19.16152 | 11516 ft | 304 kts | 121° |
| 2026-04-27 16:47 | 39.65094 | 19.18501 | 11262 ft | 302 kts | 121° |
| 2026-04-27 16:47 | 39.64016 | 19.20837 | 11024 ft | 303 kts | 122° |
| 2026-04-27 16:47 | 39.62914 | 19.23164 | 10776 ft | 302 kts | 122° |
| 2026-04-27 16:48 | 39.61829 | 19.25452 | 10543 ft | 302 kts | 122° |
| 2026-04-27 16:48 | 39.60732 | 19.27744 | 10293 ft | 298 kts | 120° |
| 2026-04-27 16:48 | 39.60076 | 19.30262 | 10058 ft | 296 kts | 97° |
| 2026-04-27 16:49 | 39.61054 | 19.35265 | 9761 ft | 293 kts | 52° |
| 2026-04-27 16:49 | 39.62510 | 19.37104 | 9627 ft | 293 kts | 39° |
| 2026-04-27 16:49 | 39.64070 | 19.38802 | 9495 ft | 293 kts | 39° |
| 2026-04-27 16:49 | 39.65630 | 19.40498 | 9361 ft | 292 kts | 39° |
| 2026-04-27 16:50 | 39.67185 | 19.42194 | 9231 ft | 292 kts | 40° |
| 2026-04-27 16:50 | 39.68538 | 19.44139 | 9092 ft | 291 kts | 60° |
| 2026-04-27 16:50 | 39.69161 | 19.46600 | 8960 ft | 287 kts | 86° |
| 2026-04-27 16:50 | 39.68949 | 19.49125 | 8831 ft | 281 kts | 110° |
| 2026-04-27 16:51 | 39.67974 | 19.51294 | 8699 ft | 279 kts | 133° |
| 2026-04-27 16:51 | 39.66414 | 19.52760 | 8571 ft | 279 kts | 156° |
| 2026-04-27 16:51 | 39.64593 | 19.53639 | 8445 ft | 280 kts | 160° |
| 2026-04-27 16:51 | 39.62765 | 19.54492 | 8320 ft | 279 kts | 160° |
| 2026-04-27 16:52 | 39.60947 | 19.55344 | 8106 ft | 276 kts | 160° |
| 2026-04-27 16:52 | 39.59217 | 19.56392 | 7692 ft | 275 kts | 148° |
| 2026-04-27 16:52 | 39.57721 | 19.57917 | 7345 ft | 273 kts | 136° |
| 2026-04-27 16:52 | 39.56510 | 19.59825 | 7230 ft | 277 kts | 123° |
| 2026-04-27 16:53 | 39.55616 | 19.62034 | 7108 ft | 277 kts | 116° |
| 2026-04-27 16:53 | 39.54781 | 19.64280 | 6828 ft | 275 kts | 117° |
| 2026-04-27 16:53 | 39.53952 | 19.66508 | 6384 ft | 275 kts | 116° |
| 2026-04-27 16:53 | 39.53121 | 19.68736 | 5958 ft | 274 kts | 117° |
| 2026-04-27 16:54 | 39.52296 | 19.70950 | 5544 ft | 272 kts | 117° |
| 2026-04-27 16:54 | 39.51477 | 19.73153 | 5139 ft | 271 kts | 117° |
| 2026-04-27 16:54 | 39.50663 | 19.75345 | 4726 ft | 269 kts | 117° |
| 2026-04-27 16:54 | 39.49857 | 19.77513 | 4494 ft | 266 kts | 117° |
| 2026-04-27 16:55 | 39.49050 | 19.79681 | 4364 ft | 268 kts | 117° |
| 2026-04-27 16:55 | 39.48243 | 19.81849 | 4181 ft | 265 kts | 117° |
| 2026-04-27 16:55 | 39.47480 | 19.83897 | 4112 ft | 241 kts | 117° |
| 2026-04-27 16:55 | 39.46787 | 19.85762 | 4015 ft | 221 kts | 118° |
| 2026-04-27 16:56 | 39.46136 | 19.87511 | 3828 ft | 209 kts | 118° |
| 2026-04-27 16:56 | 39.45531 | 19.89130 | 3671 ft | 197 kts | 118° |
| 2026-04-27 16:56 | 39.44938 | 19.90714 | 3351 ft | 195 kts | 118° |
| 2026-04-27 16:56 | 39.44354 | 19.92288 | 3008 ft | 194 kts | 114° |
| 2026-04-27 16:57 | 39.44210 | 19.93940 | 2921 ft | 182 kts | 81° |
| 2026-04-27 16:57 | 39.44772 | 19.95331 | 2890 ft | 171 kts | 46° |
| 2026-04-27 16:57 | 39.45746 | 19.96090 | 2893 ft | 162 kts | 15° |
| 2026-04-27 16:57 | 39.46843 | 19.96116 | 2898 ft | 158 kts | 343° |
| 2026-04-27 16:58 | 39.47912 | 19.95715 | 2623 ft | 163 kts | 342° |
| 2026-04-27 16:58 | 39.49004 | 19.95303 | 2304 ft | 164 kts | 342° |
| 2026-04-27 16:58 | 39.50073 | 19.94902 | 2006 ft | 155 kts | 343° |
| 2026-04-27 16:58 | 39.51074 | 19.94527 | 1709 ft | 145 kts | 343° |
| 2026-04-27 16:59 | 39.52008 | 19.94177 | 1510 ft | 137 kts | 342° |
| 2026-04-27 16:59 | 39.52911 | 19.93838 | 1341 ft | 134 kts | 342° |
| 2026-04-27 16:59 | 39.53802 | 19.93501 | 1164 ft | 133 kts | 341° |
| 2026-04-27 16:59 | 39.54685 | 19.93168 | 985 ft | 132 kts | 342° |
| 2026-04-27 17:00 | 39.55823 | 19.92601 | 792 ft | 131 kts | 337° |
| 2026-04-27 17:00 | 39.57243 | 19.91979 | 519 ft | 130 kts | 345° |
| 2026-04-27 17:00 | 39.58119 | 19.91741 | 318 ft | 127 kts | 350° |
| 2026-04-27 17:01 | 39.58989 | 19.91528 | 114 ft | 127 kts | 350° |
| 2026-04-27 17:01 | 39.59820 | 19.91313 | 25 ft | 104 kts | 348° |
| 2026-04-27 17:01 | 39.60230 | 19.91206 | 21 ft | 16 kts | 348° |
| 2026-04-27 17:01 | 39.60353 | 19.91173 | 20 ft | 40 kts | 348° |
| 2026-04-27 17:02 | 39.60621 | 19.91103 | 18 ft | 39 kts | 348° |
| 2026-04-27 17:02 | 39.60883 | 19.91037 | 19 ft | 37 kts | 348° |
| 2026-04-27 17:02 | 39.61044 | 19.91062 | 19 ft | 18 kts | 54° |
| 2026-04-27 17:02 | 39.61012 | 19.91133 | 19 ft | 10 kts | 168° |
| 2026-04-27 17:03 | 39.60943 | 19.91150 | 19 ft | 9 kts | 169° |
| 2026-04-27 17:03 | 39.60930 | 19.91213 | 19 ft | 6 kts | 80° |
| 2026-04-27 17:03 | 39.60934 | 19.91242 | 19 ft | 0 kts | 79° |